createdAt,value
2017-07-03T00:01:27.091Z,71.90
2017-07-03T00:03:55.268Z,71.90
2017-07-03T00:06:22.691Z,71.90
2017-07-03T00:08:50.100Z,72.30
2017-07-03T00:11:17.523Z,72.70
2017-07-03T00:13:45.704Z,72.50
2017-07-03T00:16:13.888Z,72.80
2017-07-03T00:18:41.310Z,72.70
2017-07-03T00:21:08.720Z,73.10
2017-07-03T00:23:36.137Z,74.40
2017-07-03T00:26:04.311Z,74.60
2017-07-03T00:28:32.499Z,74.80
2017-07-03T00:30:59.914Z,74.80
2017-07-03T00:33:27.331Z,74.50
2017-07-03T00:35:54.738Z,74.80
2017-07-03T00:38:22.152Z,74.90
2017-07-03T00:40:49.563Z,75.50
2017-07-03T00:43:17.749Z,75.40
2017-07-03T00:45:45.927Z,75.70
2017-07-03T00:48:13.347Z,75.70
2017-07-03T00:50:40.754Z,75.80
2017-07-03T00:53:08.164Z,75.50
2017-07-03T00:55:35.583Z,75.70
2017-07-03T00:58:03.003Z,75.50
2017-07-03T01:00:31.199Z,75.70
2017-07-03T01:02:58.607Z,75.60
2017-07-03T01:05:26.014Z,75.70
2017-07-03T01:07:53.423Z,75.70
2017-07-03T01:10:21.595Z,76.60
2017-07-03T01:12:49.819Z,75.70
2017-07-03T01:15:17.249Z,75.70
2017-07-03T01:17:44.662Z,75.90
2017-07-03T01:20:12.080Z,75.80
2017-07-03T01:22:39.491Z,75.90
2017-07-03T01:25:06.907Z,76.00
2017-07-03T01:27:34.332Z,75.90
2017-07-03T01:30:01.736Z,76.00
2017-07-03T01:32:29.163Z,75.90
2017-07-03T01:34:56.609Z,76.40
2017-07-03T01:37:24.031Z,76.20
2017-07-03T01:39:52.203Z,77.40
2017-07-03T01:42:20.387Z,76.60
2017-07-03T01:44:47.794Z,76.60
2017-07-03T01:47:15.224Z,77.00
2017-07-03T01:49:42.639Z,77.00
2017-07-03T01:52:10.046Z,77.20
2017-07-03T01:54:37.463Z,77.30
2017-07-03T01:57:05.660Z,77.20
2017-07-03T01:59:33.076Z,77.20
2017-07-03T02:02:00.499Z,77.20
2017-07-03T02:04:27.912Z,77.20
2017-07-03T02:06:55.323Z,77.10
2017-07-03T02:09:22.747Z,77.20
2017-07-03T02:11:50.151Z,77.30
2017-07-03T02:14:17.670Z,77.10
2017-07-03T02:16:45.083Z,77.00
2017-07-03T02:19:13.259Z,77.20
2017-07-03T02:21:40.674Z,77.00
2017-07-03T02:24:08.825Z,77.10
2017-07-03T02:26:36.247Z,77.00
2017-07-03T02:29:03.669Z,77.10
2017-07-03T02:31:31.475Z,77.30
2017-07-03T02:33:58.899Z,77.20
2017-07-03T02:36:26.316Z,77.30
2017-07-03T02:38:53.736Z,77.30
2017-07-03T02:41:21.916Z,77.20
2017-07-03T02:43:49.331Z,77.20
2017-07-03T02:46:16.746Z,77.10
2017-07-03T02:48:44.159Z,77.20
2017-07-03T02:51:11.570Z,77.30
2017-07-03T02:53:38.990Z,77.30
2017-07-03T02:56:06.402Z,77.30
2017-07-03T02:58:33.819Z,77.50
2017-07-03T03:01:01.246Z,77.90
2017-07-03T03:03:29.428Z,78.10
2017-07-03T03:05:57.610Z,78.30
2017-07-03T03:08:25.027Z,78.20
2017-07-03T03:10:52.447Z,78.40
2017-07-03T03:13:20.565Z,78.30
2017-07-03T03:15:48.078Z,78.60
2017-07-03T03:18:15.507Z,79.00
2017-07-03T03:20:43.217Z,79.10
2017-07-03T03:23:10.627Z,78.90
2017-07-03T03:25:38.039Z,78.90
2017-07-03T03:28:05.463Z,78.90
2017-07-03T03:30:32.879Z,78.90
2017-07-03T03:33:01.063Z,79.10
2017-07-03T03:35:28.478Z,79.10
2017-07-03T03:37:55.905Z,79.10
2017-07-03T03:40:23.323Z,79.10
2017-07-03T03:42:51.515Z,79.30
2017-07-03T03:45:18.931Z,80.10
2017-07-03T03:47:46.348Z,79.30
2017-07-03T03:50:13.771Z,79.20
2017-07-03T03:52:41.187Z,79.40
2017-07-03T03:55:08.615Z,79.30
2017-07-03T03:57:36.034Z,79.40
2017-07-03T04:00:04.224Z,79.60
2017-07-03T04:02:31.644Z,79.50
2017-07-03T04:04:59.572Z,79.70
2017-07-03T04:07:26.983Z,79.50
2017-07-03T04:09:55.194Z,79.80
2017-07-03T04:12:22.608Z,79.60
2017-07-03T04:14:50.782Z,80.80
2017-07-03T04:17:18.972Z,80.10
2017-07-03T04:19:46.391Z,79.90
2017-07-03T04:22:13.799Z,79.90
2017-07-03T04:24:41.224Z,80.20
2017-07-03T04:27:09.411Z,80.20
2017-07-03T04:29:36.972Z,80.10
2017-07-03T04:32:04.387Z,80.30
2017-07-03T04:34:31.848Z,80.20
2017-07-03T04:36:59.267Z,80.10
2017-07-03T04:39:26.689Z,80.20
2017-07-03T04:41:54.868Z,80.40
2017-07-03T04:44:22.292Z,80.30
2017-07-03T04:46:49.711Z,80.40
2017-07-03T04:49:17.128Z,80.60
2017-07-03T04:51:45.314Z,80.50
2017-07-03T04:54:12.734Z,80.40
2017-07-03T04:56:40.155Z,80.50
2017-07-03T04:59:07.575Z,80.10
2017-07-03T05:01:35.755Z,80.10
2017-07-03T05:04:03.171Z,80.10
2017-07-03T05:06:30.591Z,80.40
2017-07-03T05:08:58.023Z,80.70
2017-07-03T05:11:25.443Z,80.30
2017-07-03T05:13:52.863Z,80.40
2017-07-03T05:16:20.288Z,80.30
2017-07-03T05:18:47.698Z,80.10
2017-07-03T05:21:15.130Z,80.50
2017-07-03T05:23:42.542Z,80.20
2017-07-03T05:26:10.728Z,79.70
2017-07-03T05:28:38.144Z,79.70
2017-07-03T05:31:05.563Z,79.60
2017-07-03T05:33:32.998Z,79.60
2017-07-03T05:36:00.417Z,79.40
2017-07-03T05:38:27.832Z,79.20
2017-07-03T05:40:55.240Z,79.00
2017-07-03T05:43:29.655Z,78.00
2017-07-03T05:45:57.070Z,78.60
2017-07-03T05:48:24.495Z,78.80
2017-07-03T05:50:51.909Z,78.30
2017-07-03T05:53:19.324Z,78.10
2017-07-03T05:55:46.743Z,77.70
2017-07-03T05:58:15.000Z,77.60
2017-07-03T06:00:42.419Z,76.90
2017-07-03T06:03:09.843Z,76.50
2017-07-03T06:05:38.020Z,76.70
2017-07-03T06:08:05.436Z,76.70
2017-07-03T06:10:32.866Z,76.30
2017-07-03T06:13:00.291Z,75.90
2017-07-03T06:15:27.711Z,75.80
2017-07-03T06:17:55.234Z,76.00
2017-07-03T06:20:22.643Z,75.80
2017-07-03T06:22:50.823Z,74.80
2017-07-03T06:25:19.014Z,75.00
2017-07-03T06:27:46.440Z,75.00
2017-07-03T06:30:14.367Z,75.10
2017-07-03T06:32:41.798Z,75.00
2017-07-03T06:35:09.287Z,74.10
2017-07-03T06:37:36.732Z,74.30
2017-07-03T06:40:04.155Z,74.60
2017-07-03T06:42:31.571Z,78.10
2017-07-03T06:44:58.987Z,74.70
2017-07-03T06:47:26.395Z,72.00
2017-07-03T06:49:54.583Z,72.20
2017-07-03T06:52:22.768Z,71.50
2017-07-03T06:54:50.185Z,71.40
2017-07-03T06:57:18.391Z,71.50
2017-07-03T06:59:45.803Z,71.50
2017-07-03T07:02:14.640Z,70.80
2017-07-03T07:04:42.155Z,71.80
2017-07-03T07:07:09.575Z,70.80
2017-07-03T07:09:36.986Z,70.90
2017-07-03T07:12:04.923Z,69.70
2017-07-03T07:14:32.338Z,70.20
2017-07-03T07:16:59.742Z,70.70
2017-07-03T07:19:27.167Z,70.80
2017-07-03T07:21:54.575Z,71.00
2017-07-03T07:24:22.771Z,70.60
2017-07-03T07:26:50.182Z,70.60
2017-07-03T07:29:17.615Z,70.40
2017-07-03T07:31:45.022Z,69.70
2017-07-03T07:34:13.195Z,68.00
2017-07-03T07:36:41.374Z,66.80
2017-07-03T07:39:09.583Z,66.60
2017-07-03T07:41:37.021Z,66.60
2017-07-03T07:44:04.459Z,65.70
2017-07-03T07:46:32.641Z,65.10
2017-07-03T07:49:00.064Z,65.20
2017-07-03T07:51:27.471Z,65.60
2017-07-03T07:53:54.921Z,65.80
2017-07-03T07:56:22.336Z,65.80
2017-07-03T07:58:49.751Z,66.30
2017-07-03T08:01:17.201Z,66.40
2017-07-03T08:03:44.598Z,66.10
2017-07-03T08:06:12.013Z,66.20
2017-07-03T08:08:39.443Z,66.00
2017-07-03T08:11:07.618Z,65.90
2017-07-03T08:13:35.274Z,65.80
2017-07-03T08:16:02.699Z,66.30
2017-07-03T08:18:30.113Z,66.30
2017-07-03T08:20:57.522Z,66.50
2017-07-03T08:23:24.935Z,65.80
2017-07-03T08:25:52.351Z,66.10
2017-07-03T08:28:19.780Z,66.10
2017-07-03T08:30:47.188Z,65.80
2017-07-03T08:33:14.595Z,65.50
2017-07-03T08:35:42.025Z,65.20
2017-07-03T08:38:09.434Z,64.90
2017-07-03T08:40:36.860Z,64.30
2017-07-03T08:43:04.264Z,63.90
2017-07-03T08:45:31.687Z,64.20
2017-07-03T08:47:59.859Z,64.00
2017-07-03T08:50:28.063Z,63.00
2017-07-03T08:52:55.467Z,63.10
2017-07-03T08:55:22.880Z,62.60
2017-07-03T08:57:50.282Z,63.20
2017-07-03T09:00:17.708Z,62.90
2017-07-03T09:02:45.127Z,62.20
2017-07-03T09:05:12.559Z,62.50
2017-07-03T09:07:40.735Z,62.10
2017-07-03T09:10:08.959Z,61.90
2017-07-03T09:12:36.355Z,61.90
2017-07-03T09:15:03.771Z,62.40
2017-07-03T09:17:31.187Z,62.20
2017-07-03T09:19:59.495Z,61.40
2017-07-03T09:22:27.363Z,61.20
2017-07-03T09:24:54.778Z,60.70
2017-07-03T09:27:22.955Z,60.20
2017-07-03T09:29:51.131Z,60.20
2017-07-03T09:32:18.552Z,60.20
2017-07-03T09:34:45.987Z,60.30
2017-07-03T09:37:13.393Z,60.80
2017-07-03T09:39:41.571Z,60.40
2017-07-03T09:42:09.748Z,59.20
2017-07-03T09:44:37.187Z,59.20
2017-07-03T09:47:05.374Z,59.30
2017-07-03T09:49:33.550Z,57.20
2017-07-03T09:52:01.739Z,57.10
2017-07-03T09:54:29.151Z,57.10
2017-07-03T09:56:56.560Z,57.70
2017-07-03T09:59:24.008Z,57.00
2017-07-03T10:01:51.420Z,56.70
2017-07-03T10:04:18.839Z,57.00
2017-07-03T10:06:46.248Z,56.90
2017-07-03T10:09:14.419Z,57.60
2017-07-03T10:11:41.839Z,57.00
2017-07-03T10:14:09.247Z,56.50
2017-07-03T10:16:37.429Z,56.30
2017-07-03T10:19:05.596Z,55.00
2017-07-03T10:21:33.015Z,55.00
2017-07-03T10:24:00.428Z,53.60
2017-07-03T10:26:27.833Z,54.70
2017-07-03T10:28:55.252Z,53.80
2017-07-03T10:31:22.655Z,54.70
2017-07-03T10:33:50.834Z,53.50
2017-07-03T10:36:19.011Z,53.40
2017-07-03T10:38:47.200Z,51.40
2017-07-03T10:41:14.602Z,51.40
2017-07-03T10:43:42.033Z,52.40
2017-07-03T10:46:09.444Z,52.40
2017-07-03T10:48:36.851Z,52.60
2017-07-03T10:51:04.284Z,52.50
2017-07-03T10:53:31.699Z,52.90
2017-07-03T10:55:59.115Z,53.30
2017-07-03T10:58:26.523Z,53.50
2017-07-03T11:00:54.698Z,52.90
2017-07-03T11:03:22.874Z,54.20
2017-07-03T11:05:51.051Z,53.00
2017-07-03T11:08:18.564Z,52.90
2017-07-03T11:10:45.979Z,53.30
2017-07-03T11:13:13.387Z,52.70
2017-07-03T11:15:40.815Z,52.90
2017-07-03T11:18:08.232Z,52.30
2017-07-03T11:20:36.408Z,52.20
2017-07-03T11:23:04.604Z,52.20
2017-07-03T11:25:32.008Z,52.10
2017-07-03T11:27:59.804Z,52.50
2017-07-03T11:30:27.983Z,51.00
2017-07-03T11:32:55.398Z,51.00
2017-07-03T11:35:22.812Z,51.00
2017-07-03T11:37:50.231Z,51.20
2017-07-03T11:40:17.639Z,51.70
2017-07-03T11:42:45.098Z,51.90
2017-07-03T11:45:12.523Z,51.30
2017-07-03T11:47:39.931Z,51.70
2017-07-03T11:50:13.349Z,52.00
2017-07-03T11:52:40.755Z,52.30
2017-07-03T11:55:08.834Z,51.00
2017-07-03T11:57:36.253Z,51.40
2017-07-03T12:00:04.444Z,50.70
2017-07-03T12:02:31.915Z,50.70
2017-07-03T12:04:59.323Z,50.50
2017-07-03T12:07:27.499Z,49.50
2017-07-03T12:09:54.919Z,49.50
2017-07-03T12:12:22.388Z,49.30
2017-07-03T12:14:49.795Z,49.30
2017-07-03T12:17:17.417Z,47.60
2017-07-03T12:19:45.604Z,48.00
2017-07-03T12:22:13.779Z,48.20
2017-07-03T12:24:41.282Z,48.20
2017-07-03T12:27:08.690Z,48.30
2017-07-03T12:29:36.867Z,45.90
2017-07-03T12:32:05.049Z,46.10
2017-07-03T12:34:33.221Z,44.90
2017-07-03T12:37:00.763Z,44.80
2017-07-03T12:39:28.943Z,43.10
2017-07-03T12:41:57.163Z,42.40
2017-07-03T12:44:24.559Z,42.30
2017-07-03T12:46:51.990Z,39.30
2017-07-03T12:49:19.407Z,39.30
2017-07-03T12:51:46.816Z,39.70
2017-07-03T12:54:14.239Z,38.50
2017-07-03T12:56:41.647Z,38.60
2017-07-03T12:59:09.828Z,37.90
2017-07-03T13:01:38.227Z,38.00
2017-07-03T13:04:05.703Z,38.10
2017-07-03T13:06:33.126Z,36.50
2017-07-03T13:09:01.295Z,33.40
2017-07-03T13:11:29.474Z,32.70
2017-07-03T13:13:57.643Z,32.70
2017-07-03T13:16:25.871Z,32.00
2017-07-03T13:18:53.289Z,31.90
2017-07-03T13:21:20.703Z,33.30
2017-07-03T13:23:48.111Z,33.80
2017-07-03T13:26:15.571Z,32.70
2017-07-03T13:28:42.983Z,31.10
2017-07-03T13:31:11.007Z,30.20
2017-07-03T13:33:38.428Z,30.00
2017-07-03T13:36:06.602Z,30.60
2017-07-03T13:38:34.020Z,30.60
2017-07-03T13:41:01.448Z,31.00
2017-07-03T13:43:29.163Z,31.60
2017-07-03T13:45:57.347Z,31.80
2017-07-03T13:48:25.528Z,32.80
2017-07-03T13:50:52.980Z,32.70
2017-07-03T13:53:20.910Z,33.30
2017-07-03T13:55:48.328Z,34.00
2017-07-03T13:58:15.739Z,34.40
2017-07-03T14:00:43.462Z,35.50
2017-07-03T14:03:10.847Z,34.40
2017-07-03T14:05:38.264Z,35.70
2017-07-03T14:08:06.093Z,35.20
2017-07-03T14:10:34.274Z,36.50
2017-07-03T14:13:02.127Z,36.50
2017-07-03T14:15:30.340Z,34.00
2017-07-03T14:17:57.810Z,34.00
2017-07-03T14:20:25.222Z,31.30
2017-07-03T14:22:53.167Z,32.60
2017-07-03T14:25:20.675Z,34.90
2017-07-03T14:27:48.087Z,36.40
2017-07-03T14:30:16.546Z,38.70
2017-07-03T14:32:43.963Z,38.10
2017-07-03T14:35:11.375Z,38.20
2017-07-03T14:37:39.550Z,40.90
2017-07-03T14:40:07.726Z,41.30
2017-07-03T14:42:35.915Z,42.30
2017-07-03T14:45:04.130Z,42.50
2017-07-03T14:47:31.581Z,42.50
2017-07-03T14:49:59.691Z,42.70
2017-07-03T14:52:27.282Z,42.80
2017-07-03T14:54:54.696Z,42.70
2017-07-03T14:57:22.115Z,43.00
2017-07-03T14:59:49.524Z,43.50
2017-07-03T15:02:16.939Z,43.10
2017-07-03T15:04:44.347Z,43.30
2017-07-03T15:07:12.523Z,43.90
2017-07-03T15:09:40.643Z,43.80
2017-07-03T15:12:08.063Z,43.60
2017-07-03T15:14:35.495Z,42.60
2017-07-03T15:17:03.679Z,43.30
2017-07-03T15:19:31.847Z,42.80
2017-07-03T15:22:00.033Z,42.80
2017-07-03T15:24:28.223Z,42.70
2017-07-03T15:26:55.647Z,42.70
2017-07-03T15:29:23.966Z,42.60
2017-07-03T15:31:51.384Z,43.00
2017-07-03T15:34:19.918Z,43.40
2017-07-03T15:36:47.331Z,43.30
2017-07-03T15:39:15.514Z,43.20
2017-07-03T15:41:42.934Z,43.10
2017-07-03T15:44:10.338Z,43.10
2017-07-03T15:46:37.806Z,43.30
2017-07-03T15:49:05.218Z,43.60
2017-07-03T15:51:33.407Z,44.20
2017-07-03T15:54:01.574Z,43.70
2017-07-03T15:56:29.758Z,44.00
2017-07-03T15:58:57.171Z,44.00
2017-07-03T16:01:24.579Z,44.10
2017-07-03T16:03:51.995Z,44.20
2017-07-03T16:06:19.475Z,44.30
2017-07-03T16:08:47.652Z,44.50
2017-07-03T16:11:15.058Z,44.50
2017-07-03T16:13:42.482Z,44.60
2017-07-03T16:16:09.899Z,44.00
2017-07-03T16:18:38.079Z,44.00
2017-07-03T16:21:06.256Z,43.30
2017-07-03T16:23:34.427Z,43.90
2017-07-03T16:26:02.610Z,43.50
2017-07-03T16:28:30.019Z,43.40
2017-07-03T16:30:57.431Z,43.90
2017-07-03T16:33:24.860Z,44.30
2017-07-03T16:35:53.055Z,45.10
2017-07-03T16:38:20.464Z,45.10
2017-07-03T16:40:47.879Z,45.20
2017-07-03T16:43:15.299Z,45.80
2017-07-03T16:45:43.478Z,46.40
2017-07-03T16:48:11.674Z,45.60
2017-07-03T16:50:39.083Z,45.60
2017-07-03T16:53:06.491Z,45.50
2017-07-03T16:55:33.907Z,45.40
2017-07-03T16:58:01.323Z,45.30
2017-07-03T17:00:29.251Z,45.90
2017-07-03T17:02:57.432Z,45.50
2017-07-03T17:05:24.845Z,45.40
2017-07-03T17:07:52.260Z,45.80
2017-07-03T17:10:19.687Z,45.50
2017-07-03T17:12:47.949Z,45.00
2017-07-03T17:15:15.337Z,45.00
2017-07-03T17:17:42.754Z,45.00
2017-07-03T17:20:10.176Z,44.80
2017-07-03T17:22:37.582Z,44.30
2017-07-03T17:25:05.757Z,44.40
2017-07-03T17:27:33.926Z,43.70
2017-07-03T17:30:02.107Z,43.40
2017-07-03T17:32:30.292Z,43.70
2017-07-03T17:34:57.742Z,43.60
2017-07-03T17:37:25.135Z,43.60
2017-07-03T17:39:52.551Z,44.50
2017-07-03T17:42:20.729Z,45.00
2017-07-03T17:44:48.899Z,45.40
2017-07-03T17:47:16.307Z,45.30
2017-07-03T17:49:43.736Z,45.40
2017-07-03T17:52:11.145Z,45.60
2017-07-03T17:54:38.546Z,46.10
2017-07-03T17:57:05.959Z,46.60
2017-07-03T17:59:34.184Z,47.60
2017-07-03T18:02:01.599Z,47.40
2017-07-03T18:04:29.785Z,48.40
2017-07-03T18:06:57.203Z,48.30
2017-07-03T18:09:24.620Z,48.80
2017-07-03T18:11:52.042Z,49.20
2017-07-03T18:14:20.230Z,50.20
2017-07-03T18:16:47.655Z,49.80
2017-07-03T18:19:15.067Z,50.20
2017-07-03T18:21:42.498Z,50.50
2017-07-03T18:24:10.671Z,51.10
2017-07-03T18:26:38.150Z,51.10
2017-07-03T18:29:05.578Z,51.50
2017-07-03T18:31:33.760Z,52.00
2017-07-03T18:34:01.238Z,52.00
2017-07-03T18:36:28.668Z,52.20
2017-07-03T18:38:56.164Z,52.30
2017-07-03T18:41:23.587Z,52.50
2017-07-03T18:43:51.007Z,52.60
2017-07-03T18:46:18.417Z,52.80
2017-07-03T18:48:45.850Z,53.00
2017-07-03T18:51:14.051Z,53.20
2017-07-03T18:53:41.481Z,53.20
2017-07-03T18:56:09.664Z,53.40
2017-07-03T18:58:37.066Z,53.40
2017-07-03T19:01:04.477Z,53.60
2017-07-03T19:03:31.898Z,53.80
2017-07-03T19:06:00.084Z,54.80
2017-07-03T19:08:28.305Z,54.40
2017-07-03T19:10:55.765Z,54.40
2017-07-03T19:13:23.188Z,54.60
2017-07-03T19:15:50.595Z,54.50
2017-07-03T19:18:18.011Z,54.70
2017-07-03T19:20:45.423Z,54.80
2017-07-03T19:23:13.615Z,55.10
2017-07-03T19:25:41.807Z,55.30
2017-07-03T19:28:09.212Z,55.20
2017-07-03T19:30:36.647Z,55.40
2017-07-03T19:33:04.071Z,55.50
2017-07-03T19:35:31.479Z,55.80
2017-07-03T19:37:58.911Z,55.80
2017-07-03T19:40:26.352Z,55.90
2017-07-03T19:42:53.799Z,56.30
2017-07-03T19:45:21.204Z,56.40
2017-07-03T19:47:48.616Z,56.40
2017-07-03T19:50:16.040Z,56.80
2017-07-03T19:52:44.228Z,58.50
2017-07-03T19:55:11.652Z,58.50
2017-07-03T19:57:39.062Z,61.40
2017-07-03T20:00:06.487Z,66.60
2017-07-03T20:02:34.667Z,75.40
2017-07-03T20:05:02.106Z,75.40
2017-07-03T20:07:30.292Z,79.50
2017-07-03T20:09:58.487Z,81.00
2017-07-03T20:12:25.897Z,81.00
2017-07-03T20:14:53.316Z,84.20
2017-07-03T20:17:20.732Z,85.00
2017-07-03T20:19:48.934Z,88.20
2017-07-03T20:22:16.339Z,88.20
2017-07-03T20:24:43.767Z,87.00
2017-07-03T20:27:11.183Z,87.20
2017-07-03T20:29:38.689Z,88.00
2017-07-03T20:32:06.104Z,88.10
2017-07-03T20:34:33.527Z,88.00
2017-07-03T20:37:02.076Z,88.10
2017-07-03T20:39:29.565Z,88.10
2017-07-03T20:41:56.986Z,89.00
2017-07-03T20:44:24.403Z,89.60
2017-07-03T20:46:51.815Z,89.90
2017-07-03T20:49:19.247Z,90.10
2017-07-03T20:51:46.673Z,90.20
2017-07-03T20:54:14.096Z,90.50
2017-07-03T20:56:41.506Z,90.30
2017-07-03T20:59:08.932Z,90.10
2017-07-03T21:01:36.351Z,90.20
2017-07-03T21:04:03.783Z,90.10
2017-07-03T21:06:31.239Z,90.20
2017-07-03T21:08:58.664Z,90.10
2017-07-03T21:11:26.171Z,90.10
2017-07-03T21:13:53.592Z,90.00
2017-07-03T21:16:21.030Z,90.00
2017-07-03T21:18:48.443Z,90.00
2017-07-03T21:21:16.678Z,90.00
2017-07-03T21:23:44.101Z,90.00
2017-07-03T21:26:11.587Z,90.10
2017-07-03T21:28:39.027Z,90.30
2017-07-03T21:31:06.447Z,90.50
2017-07-03T21:33:34.631Z,90.00
2017-07-03T21:36:02.060Z,90.00
2017-07-03T21:38:29.458Z,90.30
2017-07-03T21:40:56.941Z,90.30
2017-07-03T21:43:24.348Z,90.00
2017-07-03T21:45:52.539Z,89.50
2017-07-03T21:48:19.946Z,89.50
2017-07-03T21:50:47.360Z,90.00
2017-07-03T21:53:14.786Z,89.90
2017-07-03T21:55:42.981Z,90.20
2017-07-03T21:58:10.395Z,90.20
2017-07-03T22:00:37.847Z,90.30
2017-07-03T22:03:05.265Z,90.30
2017-07-03T22:05:32.675Z,90.30
2017-07-03T22:08:00.864Z,90.50
2017-07-03T22:10:28.287Z,90.50
2017-07-03T22:12:55.698Z,90.40
2017-07-03T22:15:23.107Z,90.60
2017-07-03T22:17:50.535Z,90.40
2017-07-03T22:20:17.957Z,90.60
2017-07-03T22:22:45.371Z,90.50
2017-07-03T22:25:12.808Z,90.60
2017-07-03T22:27:40.226Z,90.70
2017-07-03T22:30:07.647Z,90.90
2017-07-03T22:32:35.841Z,90.90
2017-07-03T22:35:04.019Z,90.70
2017-07-03T22:37:31.511Z,90.70
2017-07-03T22:39:58.935Z,90.90
2017-07-03T22:42:26.358Z,90.90
2017-07-03T22:44:54.539Z,91.00
2017-07-03T22:47:22.723Z,91.10
2017-07-03T22:49:50.903Z,91.20
2017-07-03T22:52:18.322Z,91.20
2017-07-03T22:54:45.741Z,91.10
2017-07-03T22:57:13.155Z,91.20
2017-07-03T22:59:41.350Z,91.10
2017-07-03T23:02:08.769Z,91.10
2017-07-03T23:04:36.195Z,91.00
2017-07-03T23:07:03.620Z,91.40
2017-07-03T23:09:31.037Z,91.10
2017-07-03T23:11:58.453Z,91.20
2017-07-03T23:14:25.860Z,91.20
2017-07-03T23:16:53.276Z,91.30
2017-07-03T23:19:20.708Z,91.60
2017-07-03T23:21:48.135Z,91.40
2017-07-03T23:24:15.567Z,91.50
2017-07-03T23:26:42.979Z,91.60
2017-07-03T23:29:10.409Z,91.40
2017-07-03T23:31:38.587Z,91.60
2017-07-03T23:34:06.009Z,91.50
2017-07-03T23:36:33.425Z,91.60
2017-07-03T23:39:00.856Z,91.50
2017-07-03T23:41:29.045Z,91.70
2017-07-03T23:43:56.467Z,91.60
2017-07-03T23:46:23.874Z,92.00
2017-07-03T23:48:51.292Z,91.70
2017-07-03T23:51:19.471Z,91.60
2017-07-03T23:53:47.408Z,91.60
2017-07-03T23:56:14.833Z,91.70
2017-07-03T23:58:42.248Z,91.70
